YMST weather

Millstream Station Field
Chichester National Park, Western Australia, Australia

Public forecast

Using degrees Celsius for public forecast. Weather courtesy of forecast.io.

Closest aviation weather report (METAR) to Millstream Station Field

Closest report is Paraburdoo Airport, 99.9 nm (185.1 km) SSE. Retrieved 2020/01/28 08:00 UTC (2 hours ago):

YPBO 280800Z AUTO 10005KT 050V180 9999 // NCD 44/04 Q1006

Closest aviation forecast (TAF) to Millstream Station Field

Closest forecast is Port Hedland International Airport, 114.4 nm (211.9 km) NE. Retrieved 2020/01/28 06:36 UTC (3 hours ago):

TAF YPPD 280515Z 2806/2906 33014KT CAVOK FM281700 27008KT 9999 SCT012 FM282300 27008KT CAVOK FM290400 33014KT CAVOK